createdAt,value
2018-02-18T00:00:10.789Z,234.57
2018-02-18T00:02:38.346Z,245.17
2018-02-18T00:05:06.228Z,224.97
2018-02-18T00:07:33.789Z,246.23
2018-02-18T00:10:01.343Z,239.00
2018-02-18T00:12:28.952Z,223.50
2018-02-18T00:15:13.365Z,228.67
2018-02-18T00:17:40.963Z,220.57
2018-02-18T00:20:08.556Z,207.43
2018-02-18T00:22:36.140Z,210.17
2018-02-18T00:25:03.711Z,202.83
2018-02-18T00:27:31.281Z,189.23
2018-02-18T00:29:58.871Z,204.10
2018-02-18T00:32:26.417Z,202.77
2018-02-18T00:34:54.002Z,185.37
2018-02-18T00:37:21.554Z,173.03
2018-02-18T00:39:49.154Z,172.70
2018-02-18T00:42:17.134Z,168.33
2018-02-18T00:44:44.723Z,165.40
2018-02-18T00:47:12.590Z,163.17
2018-02-18T00:49:40.207Z,161.17
2018-02-18T00:52:07.798Z,163.73
2018-02-18T00:54:35.818Z,169.23
2018-02-18T00:57:03.415Z,158.23
2018-02-18T00:59:30.973Z,154.53
2018-02-18T01:01:58.517Z,158.30
2018-02-18T01:04:26.108Z,168.17
2018-02-18T01:06:53.650Z,162.13
2018-02-18T01:09:21.245Z,158.10
2018-02-18T01:11:48.837Z,162.83
2018-02-18T01:14:16.422Z,160.47
2018-02-18T01:16:44.096Z,155.63
2018-02-18T01:19:11.687Z,159.60
2018-02-18T01:21:39.254Z,154.30
2018-02-18T01:24:06.859Z,152.00
2018-02-18T01:26:34.406Z,164.93
2018-02-18T01:29:01.953Z,171.47
2018-02-18T01:31:29.554Z,171.03
2018-02-18T01:33:57.102Z,165.37
2018-02-18T01:36:24.694Z,168.63
2018-02-18T01:38:52.435Z,193.23
2018-02-18T01:41:20.036Z,191.27
2018-02-18T01:43:47.643Z,190.30
2018-02-18T01:46:15.182Z,187.27
2018-02-18T01:48:43.197Z,188.23
2018-02-18T01:51:10.782Z,182.53
2018-02-18T01:53:38.392Z,177.93
2018-02-18T01:56:06.372Z,247.80
2018-02-18T01:58:34.316Z,237.67
2018-02-18T02:01:01.900Z,185.30
2018-02-18T02:03:30.023Z,174.53
2018-02-18T02:05:57.842Z,178.37
2018-02-18T02:08:25.385Z,171.10
2018-02-18T02:10:52.966Z,176.27
2018-02-18T02:13:20.532Z,171.20
2018-02-18T02:15:48.346Z,168.30
2018-02-18T02:18:16.030Z,170.03
2018-02-18T02:20:43.565Z,165.47
2018-02-18T02:23:11.141Z,169.63
2018-02-18T02:25:38.682Z,154.30
2018-02-18T02:28:06.279Z,150.47
2018-02-18T02:30:33.886Z,157.93
2018-02-18T02:33:01.435Z,146.97
2018-02-18T02:35:30.013Z,146.57
2018-02-18T02:37:57.586Z,154.30
2018-02-18T02:40:25.180Z,140.80
2018-02-18T02:42:53.092Z,145.37
2018-02-18T02:45:20.704Z,141.93
2018-02-18T02:47:48.251Z,138.50
2018-02-18T02:50:15.842Z,152.73
2018-02-18T02:52:43.378Z,152.80
2018-02-18T02:55:10.989Z,173.57
2018-02-18T02:57:38.548Z,169.17
2018-02-18T03:00:06.132Z,156.47
2018-02-18T03:02:33.725Z,162.87
2018-02-18T03:05:01.282Z,153.60
2018-02-18T03:07:28.854Z,150.03
2018-02-18T03:09:56.448Z,145.40
2018-02-18T03:12:24.025Z,153.03
2018-02-18T03:14:51.575Z,142.83
2018-02-18T03:17:19.154Z,146.17
2018-02-18T03:19:47.096Z,134.67
2018-02-18T03:22:14.679Z,126.40
2018-02-18T03:24:42.254Z,133.53
2018-02-18T03:27:09.893Z,120.23
2018-02-18T03:29:37.682Z,138.07
2018-02-18T03:32:06.211Z,124.70
2018-02-18T03:34:34.117Z,121.50
2018-02-18T03:37:01.703Z,121.03
2018-02-18T03:39:29.944Z,123.77
2018-02-18T03:41:57.483Z,117.70
2018-02-18T03:44:25.040Z,117.63
2018-02-18T03:46:52.990Z,122.20
2018-02-18T03:49:20.530Z,104.40
2018-02-18T03:51:48.074Z,115.60
2018-02-18T03:54:15.670Z,113.20
2018-02-18T03:56:43.260Z,108.90
2018-02-18T03:59:10.801Z,111.87
2018-02-18T04:01:38.476Z,111.63
2018-02-18T04:04:06.068Z,96.40
2018-02-18T04:06:33.642Z,110.83
2018-02-18T04:09:02.382Z,103.47
2018-02-18T04:11:29.921Z,102.57
2018-02-18T04:13:57.467Z,99.43
2018-02-18T04:16:25.080Z,102.80
2018-02-18T04:18:52.623Z,100.57
2018-02-18T04:21:20.458Z,96.53
2018-02-18T04:23:48.034Z,102.27
2018-02-18T04:26:15.619Z,98.23
2018-02-18T04:28:43.203Z,101.43
2018-02-18T04:31:10.758Z,101.27
2018-02-18T04:33:38.365Z,112.10
2018-02-18T04:36:05.920Z,110.10
2018-02-18T04:38:33.519Z,105.73
2018-02-18T04:41:01.128Z,106.23
2018-02-18T04:43:28.675Z,109.40
2018-02-18T04:45:56.214Z,107.20
2018-02-18T04:48:23.804Z,103.20
2018-02-18T04:50:51.667Z,107.17
2018-02-18T04:53:19.262Z,113.03
2018-02-18T04:55:46.948Z,112.47
2018-02-18T04:58:14.904Z,102.90
2018-02-18T05:00:42.471Z,113.83
2018-02-18T05:03:10.017Z,112.43
2018-02-18T05:05:37.611Z,108.50
2018-02-18T05:08:05.163Z,111.43
2018-02-18T05:10:32.747Z,114.43
2018-02-18T05:13:00.295Z,106.70
2018-02-18T05:15:27.911Z,103.87
2018-02-18T05:17:56.431Z,110.93
2018-02-18T05:20:23.987Z,120.00
2018-02-18T05:22:51.539Z,126.60
2018-02-18T05:25:19.635Z,120.70
2018-02-18T05:27:47.769Z,116.10
2018-02-18T05:30:15.374Z,120.93
2018-02-18T05:32:42.973Z,114.17
2018-02-18T05:35:10.560Z,112.63
2018-02-18T05:37:39.011Z,114.70
2018-02-18T05:40:06.613Z,100.20
2018-02-18T05:42:34.149Z,99.27
2018-02-18T05:45:02.659Z,104.80
2018-02-18T05:47:30.805Z,101.60
2018-02-18T05:49:58.363Z,99.80
2018-02-18T05:52:25.951Z,93.70
2018-02-18T05:54:53.500Z,99.37
2018-02-18T05:57:21.078Z,96.13
2018-02-18T05:59:48.683Z,90.97
2018-02-18T06:02:16.269Z,96.77
2018-02-18T06:04:43.820Z,94.40
2018-02-18T06:07:11.689Z,97.47
2018-02-18T06:09:39.244Z,89.83
2018-02-18T06:12:06.840Z,102.33
2018-02-18T06:14:35.202Z,89.73
2018-02-18T06:17:03.234Z,95.87
2018-02-18T06:19:31.274Z,96.30
2018-02-18T06:21:59.543Z,94.50
2018-02-18T06:24:27.368Z,87.30
2018-02-18T06:26:55.339Z,94.63
2018-02-18T06:29:22.930Z,100.93
2018-02-18T06:31:50.470Z,103.47
2018-02-18T06:34:18.073Z,107.60
2018-02-18T06:36:45.627Z,111.73
2018-02-18T06:39:13.224Z,103.70
2018-02-18T06:41:40.836Z,103.37
2018-02-18T06:44:08.770Z,104.57
2018-02-18T06:46:36.314Z,108.57
2018-02-18T06:49:03.892Z,99.20
2018-02-18T06:51:31.444Z,90.10
2018-02-18T06:53:59.039Z,100.43
2018-02-18T06:56:26.626Z,106.63
2018-02-18T06:58:54.210Z,94.43
2018-02-18T07:01:21.808Z,92.77
2018-02-18T07:03:49.349Z,100.10
2018-02-18T07:06:16.944Z,94.07
2018-02-18T07:08:44.486Z,93.37
2018-02-18T07:11:12.070Z,87.60
2018-02-18T07:13:39.890Z,87.20
2018-02-18T07:16:07.475Z,92.63
2018-02-18T07:18:35.021Z,93.83
2018-02-18T07:21:02.589Z,93.27
2018-02-18T07:23:30.404Z,85.30
2018-02-18T07:25:58.975Z,87.73
2018-02-18T07:28:26.676Z,90.87
2018-02-18T07:30:54.237Z,95.47
2018-02-18T07:33:22.760Z,81.73
2018-02-18T07:35:50.347Z,83.23
2018-02-18T07:38:17.904Z,86.87
2018-02-18T07:40:45.512Z,78.93
2018-02-18T07:43:13.064Z,78.13
2018-02-18T07:45:40.598Z,76.70
2018-02-18T07:48:08.682Z,75.60
2018-02-18T07:50:36.252Z,74.37
2018-02-18T07:53:03.852Z,76.73
2018-02-18T07:55:31.394Z,73.50
2018-02-18T07:57:59.745Z,68.00
2018-02-18T08:00:27.367Z,70.47
2018-02-18T08:02:54.951Z,71.97
2018-02-18T08:05:22.503Z,68.27
2018-02-18T08:07:50.091Z,72.33
2018-02-18T08:10:17.771Z,65.93
2018-02-18T08:12:45.359Z,61.37
2018-02-18T08:15:13.552Z,68.23
2018-02-18T08:17:41.100Z,67.00
2018-02-18T08:20:08.697Z,67.60
2018-02-18T08:22:36.229Z,68.70
2018-02-18T08:25:03.783Z,71.53
2018-02-18T08:27:31.796Z,72.80
2018-02-18T08:29:59.335Z,65.27
2018-02-18T08:32:26.873Z,61.07
2018-02-18T08:34:54.450Z,64.40
2018-02-18T08:37:22.044Z,74.23
2018-02-18T08:39:49.594Z,64.03
2018-02-18T08:42:17.188Z,66.10
2018-02-18T08:44:44.777Z,58.53
2018-02-18T08:47:12.354Z,65.20
2018-02-18T08:49:39.920Z,67.47
2018-02-18T08:52:07.520Z,71.00
2018-02-18T08:54:35.938Z,72.27
2018-02-18T08:57:03.506Z,75.80
2018-02-18T08:59:31.048Z,73.03
2018-02-18T09:01:58.635Z,75.43
2018-02-18T09:04:26.166Z,67.77
2018-02-18T09:06:54.546Z,75.40
2018-02-18T09:09:22.086Z,72.53
2018-02-18T09:11:49.671Z,70.80
2018-02-18T09:14:18.396Z,74.43
2018-02-18T09:16:46.316Z,80.33
2018-02-18T09:19:14.224Z,79.43
2018-02-18T09:21:41.822Z,77.83
2018-02-18T09:24:09.366Z,77.50
2018-02-18T09:26:36.977Z,83.67
2018-02-18T09:29:04.524Z,81.43
2018-02-18T09:31:32.610Z,90.57
2018-02-18T09:34:00.527Z,83.47
2018-02-18T09:36:29.823Z,83.50
2018-02-18T09:38:57.756Z,82.33
2018-02-18T09:41:25.348Z,95.37
2018-02-18T09:43:53.313Z,85.30
2018-02-18T09:46:20.915Z,88.07
2018-02-18T09:48:48.479Z,101.67
2018-02-18T09:51:16.036Z,109.37
2018-02-18T09:53:43.629Z,84.53
2018-02-18T09:56:11.320Z,91.27
2018-02-18T09:58:40.187Z,103.27
2018-02-18T10:01:08.126Z,100.23
2018-02-18T10:03:35.775Z,111.77
2018-02-18T10:06:03.852Z,105.80
2018-02-18T10:08:31.607Z,102.13
2018-02-18T10:10:59.482Z,102.97
2018-02-18T10:13:27.802Z,100.73
2018-02-18T10:15:55.763Z,107.57
2018-02-18T10:18:23.307Z,104.80
2018-02-18T10:20:51.182Z,100.77
2018-02-18T10:23:19.751Z,98.67
2018-02-18T10:25:47.600Z,115.23
2018-02-18T10:28:16.910Z,106.30
2018-02-18T10:30:44.808Z,107.00
2018-02-18T10:33:12.347Z,121.03
2018-02-18T10:35:40.464Z,122.37
2018-02-18T10:38:09.028Z,114.97
2018-02-18T10:40:37.520Z,106.93
2018-02-18T10:43:05.411Z,107.80
2018-02-18T10:45:33.007Z,105.03
2018-02-18T10:48:00.565Z,99.83
2018-02-18T10:50:28.127Z,96.90
2018-02-18T10:52:55.729Z,88.97
2018-02-18T10:55:23.272Z,87.50
2018-02-18T10:57:51.328Z,85.00
2018-02-18T11:00:19.192Z,88.93
2018-02-18T11:02:47.904Z,91.23
2018-02-18T11:05:15.451Z,92.27
2018-02-18T11:07:43.841Z,87.87
2018-02-18T11:10:11.848Z,92.17
2018-02-18T11:12:39.400Z,97.23
2018-02-18T11:15:06.982Z,88.73
2018-02-18T11:17:35.213Z,80.67
2018-02-18T11:20:02.791Z,88.97
2018-02-18T11:22:30.332Z,87.57
2018-02-18T11:24:57.920Z,98.80
2018-02-18T11:27:25.462Z,82.47
2018-02-18T11:29:54.315Z,88.57
2018-02-18T11:32:22.098Z,85.57
2018-02-18T11:34:52.348Z,86.33
2018-02-18T11:37:21.321Z,90.50
2018-02-18T11:39:48.872Z,86.47
2018-02-18T11:42:16.504Z,87.03
2018-02-18T11:44:44.790Z,82.80
2018-02-18T11:47:12.553Z,84.47
2018-02-18T11:49:40.603Z,98.67
2018-02-18T11:52:08.156Z,95.17
2018-02-18T11:54:35.710Z,90.47
2018-02-18T11:57:03.904Z,102.43
2018-02-18T11:59:31.515Z,104.70
2018-02-18T12:02:00.089Z,90.17
2018-02-18T12:04:27.675Z,94.30
2018-02-18T12:06:55.275Z,98.80
2018-02-18T12:09:23.751Z,95.33
2018-02-18T12:11:51.560Z,91.80
2018-02-18T12:14:19.181Z,93.57
2018-02-18T12:16:47.052Z,94.33
2018-02-18T12:19:14.914Z,101.93
2018-02-18T12:21:43.004Z,95.00
2018-02-18T12:24:11.293Z,108.83
2018-02-18T12:26:39.236Z,102.17
2018-02-18T12:29:07.450Z,102.53
2018-02-18T12:31:37.052Z,100.93
2018-02-18T12:34:06.342Z,102.67
2018-02-18T12:36:33.892Z,109.93
2018-02-18T12:39:01.496Z,104.93
2018-02-18T12:41:29.099Z,105.30
2018-02-18T12:43:56.796Z,95.50
2018-02-18T12:46:24.855Z,99.00
2018-02-18T12:48:53.359Z,98.50
2018-02-18T12:51:20.912Z,93.13
2018-02-18T12:53:48.766Z,91.43
2018-02-18T12:56:16.844Z,93.23
2018-02-18T12:58:45.224Z,95.60
2018-02-18T13:01:12.768Z,94.50
2018-02-18T13:03:40.302Z,95.00
2018-02-18T13:06:08.105Z,98.03
2018-02-18T13:08:36.161Z,96.27
2018-02-18T13:11:04.582Z,94.00
2018-02-18T13:13:32.124Z,94.20
2018-02-18T13:15:59.928Z,85.27
2018-02-18T13:18:28.571Z,100.63
2018-02-18T13:20:56.308Z,88.20
2018-02-18T13:23:24.348Z,92.83
2018-02-18T13:25:53.140Z,84.23
2018-02-18T13:28:20.821Z,89.57
2018-02-18T13:30:48.371Z,91.57
2018-02-18T13:33:16.394Z,91.67
2018-02-18T13:35:45.339Z,87.60
2018-02-18T13:38:13.446Z,84.87
2018-02-18T13:40:40.996Z,89.87
2018-02-18T13:43:08.595Z,86.30
2018-02-18T13:45:36.144Z,92.00
2018-02-18T13:48:04.057Z,89.90
2018-02-18T13:50:31.652Z,88.87
2018-02-18T13:53:00.228Z,93.33
2018-02-18T13:55:28.401Z,102.20
2018-02-18T13:57:55.962Z,95.03
2018-02-18T14:00:23.502Z,93.10
2018-02-18T14:02:51.056Z,87.33
2018-02-18T14:05:19.396Z,91.30
2018-02-18T14:07:47.058Z,92.27
2018-02-18T14:10:14.604Z,92.23
2018-02-18T14:12:42.189Z,98.93
2018-02-18T14:15:09.734Z,89.43
2018-02-18T14:17:37.352Z,87.90
2018-02-18T14:20:04.927Z,101.63
2018-02-18T14:22:32.527Z,105.60
2018-02-18T14:25:00.480Z,102.27
2018-02-18T14:27:28.023Z,86.60
2018-02-18T14:29:57.276Z,104.00
2018-02-18T14:32:24.818Z,97.97
2018-02-18T14:34:53.229Z,107.00
2018-02-18T14:37:20.780Z,113.23
2018-02-18T14:39:48.441Z,113.40
2018-02-18T14:42:27.586Z,115.00
2018-02-18T14:45:07.328Z,114.33
2018-02-18T14:47:46.507Z,124.37
2018-02-18T14:50:25.879Z,122.87
2018-02-18T14:53:05.152Z,114.53
2018-02-18T14:55:44.427Z,105.40
2018-02-18T14:58:12.022Z,109.73
2018-02-18T15:00:39.563Z,107.30
2018-02-18T15:03:07.108Z,114.00
2018-02-18T15:05:34.932Z,107.77
2018-02-18T15:08:02.511Z,104.80
2018-02-18T15:10:30.154Z,122.10
2018-02-18T15:12:58.195Z,108.10
2018-02-18T15:15:25.788Z,105.67
2018-02-18T15:17:54.210Z,105.67
2018-02-18T15:20:22.636Z,134.97
2018-02-18T15:22:50.558Z,126.23
2018-02-18T15:25:18.118Z,119.53
2018-02-18T15:27:46.645Z,132.67
2018-02-18T15:30:14.201Z,135.33
2018-02-18T15:32:41.923Z,149.03
2018-02-18T15:35:09.467Z,126.33
2018-02-18T15:37:38.062Z,142.30
2018-02-18T15:40:06.015Z,138.13
2018-02-18T15:42:33.620Z,130.63
2018-02-18T15:45:02.102Z,134.70
2018-02-18T15:47:29.651Z,134.13
2018-02-18T15:49:58.175Z,125.23
2018-02-18T15:52:25.758Z,139.70
2018-02-18T15:54:53.354Z,126.13
2018-02-18T15:57:20.910Z,120.30
2018-02-18T15:59:48.467Z,126.00
2018-02-18T16:02:16.893Z,124.57
2018-02-18T16:04:44.654Z,131.07
2018-02-18T16:07:12.253Z,137.03
2018-02-18T16:09:39.815Z,135.87
2018-02-18T16:12:07.500Z,134.33
2018-02-18T16:14:35.086Z,141.43
2018-02-18T16:17:02.685Z,172.10
2018-02-18T16:19:30.767Z,200.57
2018-02-18T16:21:58.391Z,192.17
2018-02-18T16:24:25.980Z,179.63
2018-02-18T16:26:53.534Z,197.37
2018-02-18T16:29:21.131Z,199.93
2018-02-18T16:31:49.060Z,230.77
2018-02-18T16:34:16.620Z,244.63
2018-02-18T16:36:44.223Z,258.90
2018-02-18T16:39:12.010Z,189.77
2018-02-18T16:41:39.591Z,199.47
2018-02-18T16:44:07.200Z,201.67
2018-02-18T16:46:34.744Z,210.43
2018-02-18T16:49:02.457Z,214.50
2018-02-18T16:51:30.002Z,209.60
2018-02-18T16:53:57.640Z,216.67
2018-02-18T16:56:25.199Z,212.63
2018-02-18T16:58:52.793Z,196.50
2018-02-18T17:01:20.344Z,206.27
2018-02-18T17:03:47.950Z,202.50
2018-02-18T17:06:15.721Z,223.03
2018-02-18T17:08:44.121Z,227.47
2018-02-18T17:11:12.543Z,222.10
2018-02-18T17:13:40.308Z,204.93
2018-02-18T17:16:07.878Z,211.30
2018-02-18T17:18:35.427Z,222.00
2018-02-18T17:21:03.019Z,246.73
2018-02-18T17:23:30.563Z,342.57
2018-02-18T17:25:58.537Z,263.07
2018-02-18T17:28:26.480Z,396.00
2018-02-18T17:30:54.318Z,383.60
2018-02-18T17:33:22.337Z,394.63
2018-02-18T17:35:50.974Z,405.53
2018-02-18T17:38:19.553Z,395.20
2018-02-18T17:40:47.484Z,383.70
2018-02-18T17:43:16.644Z,406.53
2018-02-18T17:45:44.236Z,437.83
2018-02-18T17:48:12.175Z,476.80
2018-02-18T17:50:39.763Z,436.57
2018-02-18T17:53:07.578Z,439.53
2018-02-18T17:55:35.883Z,437.77
2018-02-18T17:58:03.838Z,446.77
2018-02-18T18:00:32.612Z,415.93
2018-02-18T18:03:00.264Z,421.13
2018-02-18T18:05:28.177Z,423.27
2018-02-18T18:07:55.834Z,419.27
2018-02-18T18:10:23.384Z,418.77
2018-02-18T18:12:51.667Z,415.97
2018-02-18T18:15:19.857Z,413.03
2018-02-18T18:17:47.398Z,453.53
2018-02-18T18:20:14.943Z,417.20
2018-02-18T18:22:43.193Z,329.63
2018-02-18T18:25:11.364Z,335.33
2018-02-18T18:27:38.911Z,301.90
2018-02-18T18:30:06.530Z,329.23
2018-02-18T18:32:34.507Z,293.13
2018-02-18T18:35:03.270Z,298.33
2018-02-18T18:37:31.632Z,301.30
2018-02-18T18:39:59.236Z,289.27
2018-02-18T18:42:26.818Z,281.73
2018-02-18T18:44:54.474Z,278.43
2018-02-18T18:47:22.622Z,270.73
2018-02-18T18:49:50.175Z,257.30
2018-02-18T18:52:17.851Z,251.80
2018-02-18T18:54:46.060Z,271.33
2018-02-18T18:57:13.625Z,269.53
2018-02-18T18:59:41.385Z,262.03
2018-02-18T19:02:10.819Z,277.43
2018-02-18T19:04:38.384Z,278.47
2018-02-18T19:07:05.944Z,292.40
2018-02-18T19:09:33.534Z,303.57
2018-02-18T19:12:03.231Z,376.73
2018-02-18T19:14:30.826Z,342.00
2018-02-18T19:16:59.451Z,361.77
2018-02-18T19:19:26.999Z,341.07
2018-02-18T19:21:55.283Z,343.53
2018-02-18T19:24:22.834Z,370.93
2018-02-18T19:26:50.479Z,359.93
2018-02-18T19:29:19.031Z,401.30
2018-02-18T19:31:46.575Z,402.77
2018-02-18T19:34:15.441Z,480.27
2018-02-18T19:36:45.759Z,447.43
2018-02-18T19:39:15.205Z,416.77
2018-02-18T19:41:43.119Z,451.67
2018-02-18T19:44:10.739Z,441.27
2018-02-18T19:46:39.725Z,456.33
2018-02-18T19:49:07.434Z,430.80
2018-02-18T19:51:35.039Z,425.33
2018-02-18T19:54:02.983Z,438.33
2018-02-18T19:56:46.004Z,424.27
2018-02-18T19:59:29.258Z,444.17
2018-02-18T20:02:13.528Z,438.10
2018-02-18T20:04:55.880Z,441.87
2018-02-18T20:07:38.635Z,420.23
2018-02-18T20:10:06.232Z,395.73
2018-02-18T20:12:35.167Z,365.63
2018-02-18T20:15:03.697Z,388.07
2018-02-18T20:17:31.884Z,386.10
2018-02-18T20:19:59.767Z,369.67
2018-02-18T20:22:28.042Z,364.47
2018-02-18T20:24:55.644Z,361.00
2018-02-18T20:27:23.512Z,370.63
2018-02-18T20:29:51.589Z,356.17
2018-02-18T20:32:19.983Z,377.10
2018-02-18T20:34:48.945Z,371.00
2018-02-18T20:37:16.732Z,357.57
2018-02-18T20:39:46.276Z,360.00
2018-02-18T20:42:13.858Z,346.20
2018-02-18T20:44:42.337Z,330.00
2018-02-18T20:47:11.174Z,334.20
2018-02-18T20:49:39.156Z,307.53
2018-02-18T20:52:06.742Z,281.00
2018-02-18T20:54:36.327Z,284.33
2018-02-18T20:57:03.918Z,281.23
2018-02-18T20:59:31.469Z,265.93
2018-02-18T21:01:59.059Z,270.23
2018-02-18T21:04:27.440Z,290.23
2018-02-18T21:06:55.056Z,286.47
2018-02-18T21:09:23.522Z,263.43
2018-02-18T21:11:51.092Z,298.60
2018-02-18T21:14:18.668Z,302.03
2018-02-18T21:16:46.259Z,331.70
2018-02-18T21:19:13.941Z,326.43
2018-02-18T21:21:41.535Z,348.33
2018-02-18T21:24:09.114Z,329.57
2018-02-18T21:26:36.705Z,331.63
2018-02-18T21:29:04.289Z,306.40
2018-02-18T21:31:31.830Z,282.90
2018-02-18T21:33:59.422Z,290.73
2018-02-18T21:36:26.963Z,293.40
2018-02-18T21:38:54.602Z,297.53
2018-02-18T21:41:22.155Z,288.13
2018-02-18T21:43:49.712Z,272.40
2018-02-18T21:46:17.430Z,287.33
2018-02-18T21:48:46.391Z,296.07
2018-02-18T21:51:14.008Z,304.30
2018-02-18T21:53:42.055Z,297.77
2018-02-18T21:56:09.783Z,307.40
2018-02-18T21:58:37.371Z,293.33
2018-02-18T22:01:04.924Z,298.77
2018-02-18T22:03:32.764Z,293.50
2018-02-18T22:06:00.379Z,283.63
2018-02-18T22:08:28.939Z,265.63
2018-02-18T22:10:56.522Z,288.63
2018-02-18T22:13:24.092Z,279.33
2018-02-18T22:15:52.213Z,276.17
2018-02-18T22:18:20.904Z,294.80
2018-02-18T22:20:48.455Z,316.63
2018-02-18T22:23:16.735Z,321.03
2018-02-18T22:25:44.478Z,327.00
2018-02-18T22:28:12.022Z,307.00
2018-02-18T22:30:39.906Z,294.77
2018-02-18T22:33:07.535Z,298.80
2018-02-18T22:35:36.515Z,317.13
2018-02-18T22:38:04.320Z,335.03
2018-02-18T22:40:32.110Z,359.30
2018-02-18T22:42:59.883Z,348.47
2018-02-18T22:45:27.609Z,333.87
2018-02-18T22:47:55.206Z,324.10
2018-02-18T22:50:22.747Z,327.60
2018-02-18T22:52:50.302Z,322.77
2018-02-18T22:55:17.917Z,298.47
2018-02-18T22:57:45.464Z,303.57
2018-02-18T23:00:17.968Z,300.67
2018-02-18T23:02:46.493Z,290.60
2018-02-18T23:05:19.623Z,302.83
2018-02-18T23:07:47.207Z,286.87
2018-02-18T23:10:14.794Z,296.27
2018-02-18T23:12:42.809Z,303.50
2018-02-18T23:15:10.844Z,307.40
2018-02-18T23:17:38.435Z,311.93
2018-02-18T23:20:06.387Z,315.13
2018-02-18T23:22:33.939Z,338.33
2018-02-18T23:25:01.531Z,327.47
2018-02-18T23:27:29.360Z,334.00
2018-02-18T23:29:56.906Z,357.90
2018-02-18T23:32:24.486Z,320.73
2018-02-18T23:34:52.076Z,323.10
2018-02-18T23:37:19.672Z,312.27
2018-02-18T23:39:47.614Z,281.87
2018-02-18T23:42:15.203Z,290.20
2018-02-18T23:44:42.742Z,257.50
2018-02-18T23:47:10.341Z,254.40
2018-02-18T23:49:37.888Z,271.23
2018-02-18T23:52:05.482Z,243.30
2018-02-18T23:54:33.029Z,237.50
2018-02-18T23:57:00.572Z,224.23
2018-02-18T23:59:28.413Z,230.43
